»·PEaware :: N3298S KPSP-KRAL

N3298S :: KPSP-KRAL

FLIGHT INFORMATION

Flight Status: Arrived
Operator: Privately registered:
United States
More flights under this callsign
Pilot: Todd P. (5750)
Aircraft: BEECH AIRCRAFT BONANZA
(BE36)
More flights by this aircraft type
Origin: KPSP Palm Springs Intl
United States
Destination: KRAL Riverside Mun
United States
More flights between these airports :: More routes between these airports
Route: CATH1 PSP V388 PDZ
File this flight plan on PilotEdge
Remarks: TEC route PSPN3
Altitude:
(Current/Filed)
10,000ft
Speed:
(Current/Filed)
140kts
Departed: 22-Jul-15 08:02 PM
Arrived: 22-Jul-15 08:37 PM
Distance/Time
Traveled:
47nm/0:35
Distance/Time
To Go:
Arrived

Flight Plot

Page will automatically refresh every two minutes.


Map Options




Map Legend


Flown Route
Filed Route
Departure Airport
Arrival Airport
Navaid (VOR, NDB)
Fix

Horizontal Profiles

Position Reports

Time Latitude Longitude Heading Altitude Ground
Speed
22-Jul-15 19:47 33.825179 -116.507467 60 481ft 0kts
22-Jul-15 19:48 33.825179 -116.507467 60 481ft 0kts
22-Jul-15 19:49 33.825179 -116.507467 60 481ft 0kts
22-Jul-15 19:50 33.825179 -116.507467 60 481ft 0kts
22-Jul-15 19:51 33.825179 -116.507467 60 481ft 0kts
22-Jul-15 19:52 33.824792 -116.505339 146 481ft 14kts
22-Jul-15 19:53 33.822786 -116.504789 261 481ft 14kts
22-Jul-15 19:54 33.822055 -116.502858 149 480ft 22kts
22-Jul-15 19:55 33.818258 -116.498716 300 481ft 5kts
22-Jul-15 19:56 33.818270 -116.498737 335 481ft 0kts
22-Jul-15 19:57 33.818270 -116.498737 335 481ft 0kts
22-Jul-15 19:58 33.818769 -116.498218 33 481ft 10kts
22-Jul-15 19:59 33.819116 -116.498255 329 480ft 0kts
22-Jul-15 20:00 33.819181 -116.498282 326 480ft 0kts
22-Jul-15 20:01 33.829549 -116.508525 330 876ft 79kts
22-Jul-15 20:02 33.846606 -116.523391 322 2185ft 77kts
22-Jul-15 20:03 33.864302 -116.523007 71 3149ft 108kts
22-Jul-15 20:04 33.864322 -116.488008 69 4083ft 106kts
22-Jul-15 20:05 33.871400 -116.455400 62 4965ft 101kts
22-Jul-15 20:06 33.867084 -116.420156 108 5799ft 123kts
22-Jul-15 20:07 33.848805 -116.384821 106 6580ft 121kts
22-Jul-15 20:08 33.830900 -116.349750 137 7262ft 134kts
22-Jul-15 20:09 33.814301 -116.366083 315 7922ft 85kts
22-Jul-15 20:10 33.830658 -116.384519 317 8639ft 78kts
22-Jul-15 20:11 33.845423 -116.405135 320 9279ft 79kts
22-Jul-15 20:12 33.862179 -116.422558 329 9902ft 78kts
22-Jul-15 20:13 33.873186 -116.451246 293 10057ft 124kts
22-Jul-15 20:14 33.885455 -116.493165 297 10092ft 141kts
22-Jul-15 20:15 33.898039 -116.539859 295 9942ft 153kts
22-Jul-15 20:16 33.910280 -116.587878 294 9930ft 148kts
22-Jul-15 20:17 33.922232 -116.634991 294 9930ft 146kts
22-Jul-15 20:18 33.931771 -116.673828 282 9935ft 149kts
22-Jul-15 20:19 33.918852 -116.732668 260 9958ft 158kts
22-Jul-15 20:20 33.908454 -116.774797 259 9969ft 158kts
22-Jul-15 20:21 33.895695 -116.825653 258 9989ft 161kts
22-Jul-15 20:22 33.890789 -116.879474 275 9733ft 175kts
22-Jul-15 20:23 33.892675 -116.938540 275 9067ft 181kts
22-Jul-15 20:24 33.894658 -116.998587 275 8113ft 177kts
22-Jul-15 20:25 33.896419 -117.054135 274 7051ft 172kts
22-Jul-15 20:26 33.898280 -117.111431 274 5956ft 171kts
22-Jul-15 20:27 33.900095 -117.166162 273 5200ft 157kts
22-Jul-15 20:28 33.907704 -117.213733 284 4853ft 146kts
22-Jul-15 20:29 33.916728 -117.259898 283 4338ft 132kts
22-Jul-15 20:30 33.924186 -117.298573 284 3992ft 103kts
22-Jul-15 20:31 33.929264 -117.324590 283 3398ft 81kts
22-Jul-15 20:32 33.933562 -117.351228 281 2591ft 84kts
22-Jul-15 20:33 33.939421 -117.377662 282 1824ft 78kts
22-Jul-15 20:34 33.944057 -117.401913 281 1231ft 69kts
22-Jul-15 20:35 33.948653 -117.425255 280 912ft 70kts
22-Jul-15 20:36 33.951390 -117.441792 251 822ft 0kts
22-Jul-15 20:37 33.950659 -117.443947 187 822ft 13kts

Navigation Log

Ident Type
Flight plan parsing failed, navigation log unavailable